sensor_id;sensor_type;location;lat;lon;timestamp;pressure;altitude;pressure_sealevel;temperature;humidity
54936;BME280;40838;50.676;7.838;2023-02-13T00:00:15;100358.16;;;4.14;100.00
54936;BME280;40838;50.676;7.838;2023-02-13T00:02:42;100357.97;;;4.31;100.00
54936;BME280;40838;50.676;7.838;2023-02-13T00:05:09;100347.66;;;3.85;100.00
54936;BME280;40838;50.676;7.838;2023-02-13T00:07:36;100349.41;;;3.92;100.00
54936;BME280;40838;50.676;7.838;2023-02-13T00:10:03;100352.31;;;3.97;100.00
54936;BME280;40838;50.676;7.838;2023-02-13T00:12:32;100335.88;;;3.66;100.00
54936;BME280;40838;50.676;7.838;2023-02-13T00:15:00;100346.41;;;4.17;100.00
54936;BME280;40838;50.676;7.838;2023-02-13T00:17:27;100341.66;;;3.91;100.00
54936;BME280;40838;50.676;7.838;2023-02-13T00:19:54;100340.03;;;3.90;100.00
54936;BME280;40838;50.676;7.838;2023-02-13T00:22:20;100329.78;;;3.80;100.00
54936;BME280;40838;50.676;7.838;2023-02-13T00:24:47;100332.84;;;3.84;100.00
54936;BME280;40838;50.676;7.838;2023-02-13T00:27:14;100330.94;;;3.92;100.00
54936;BME280;40838;50.676;7.838;2023-02-13T00:29:41;100333.22;;;3.81;100.00
54936;BME280;40838;50.676;7.838;2023-02-13T00:32:09;100329.66;;;3.14;100.00
54936;BME280;40838;50.676;7.838;2023-02-13T00:34:36;100328.59;;;4.34;100.00
54936;BME280;40838;50.676;7.838;2023-02-13T00:37:03;100337.78;;;3.42;100.00
54936;BME280;40838;50.676;7.838;2023-02-13T00:39:30;100337.53;;;4.18;100.00
54936;BME280;40838;50.676;7.838;2023-02-13T00:41:56;100332.69;;;4.21;100.00
54936;BME280;40838;50.676;7.838;2023-02-13T00:44:23;100332.63;;;4.00;100.00
54936;BME280;40838;50.676;7.838;2023-02-13T00:46:50;100335.69;;;3.52;100.00
54936;BME280;40838;50.676;7.838;2023-02-13T00:49:18;100330.72;;;3.94;100.00
54936;BME280;40838;50.676;7.838;2023-02-13T00:51:45;100332.38;;;3.95;100.00
54936;BME280;40838;50.676;7.838;2023-02-13T00:54:13;100328.81;;;4.03;100.00
54936;BME280;40838;50.676;7.838;2023-02-13T00:56:39;100328.41;;;3.84;100.00
54936;BME280;40838;50.676;7.838;2023-02-13T00:59:06;100341.28;;;3.20;100.00
54936;BME280;40838;50.676;7.838;2023-02-13T01:01:33;100339.84;;;3.76;100.00
54936;BME280;40838;50.676;7.838;2023-02-13T01:04:00;100330.22;;;3.84;100.00
54936;BME280;40838;50.676;7.838;2023-02-13T01:06:29;100336.25;;;3.48;100.00
54936;BME280;40838;50.676;7.838;2023-02-13T01:08:56;100333.22;;;3.81;100.00
54936;BME280;40838;50.676;7.838;2023-02-13T01:11:23;100333.97;;;3.60;100.00
54936;BME280;40838;50.676;7.838;2023-02-13T01:13:49;100327.44;;;4.07;100.00
54936;BME280;40838;50.676;7.838;2023-02-13T01:16:19;100324.69;;;3.49;100.00
54936;BME280;40838;50.676;7.838;2023-02-13T01:18:46;100322.00;;;3.93;100.00
54936;BME280;40838;50.676;7.838;2023-02-13T01:21:16;100320.09;;;4.23;100.00
54936;BME280;40838;50.676;7.838;2023-02-13T01:23:46;100313.63;;;3.53;100.00
54936;BME280;40838;50.676;7.838;2023-02-13T01:26:15;100314.59;;;3.67;100.00
54936;BME280;40838;50.676;7.838;2023-02-13T01:28:43;100313.47;;;2.65;100.00
54936;BME280;40838;50.676;7.838;2023-02-13T01:31:11;100319.25;;;3.65;100.00
54936;BME280;40838;50.676;7.838;2023-02-13T01:33:38;100306.97;;;3.43;100.00
54936;BME280;40838;50.676;7.838;2023-02-13T01:36:07;100306.50;;;3.69;100.00
54936;BME280;40838;50.676;7.838;2023-02-13T01:38:36;100303.47;;;3.87;100.00
54936;BME280;40838;50.676;7.838;2023-02-13T01:41:05;100306.97;;;4.09;100.00
54936;BME280;40838;50.676;7.838;2023-02-13T01:43:50;100302.25;;;3.23;100.00
54936;BME280;40838;50.676;7.838;2023-02-13T01:46:23;100305.97;;;3.59;100.00
54936;BME280;40838;50.676;7.838;2023-02-13T01:48:54;100306.94;;;3.87;100.00
54936;BME280;40838;50.676;7.838;2023-02-13T01:51:24;100294.03;;;3.77;100.00
54936;BME280;40838;50.676;7.838;2023-02-13T01:53:58;100303.69;;;3.56;100.00
54936;BME280;40838;50.676;7.838;2023-02-13T01:56:32;100303.28;;;3.88;100.00
54936;BME280;40838;50.676;7.838;2023-02-13T01:59:12;100302.19;;;3.83;100.00
54936;BME280;40838;50.676;7.838;2023-02-13T02:01:40;100300.84;;;3.87;100.00
54936;BME280;40838;50.676;7.838;2023-02-13T02:04:09;100294.72;;;4.01;100.00
54936;BME280;40838;50.676;7.838;2023-02-13T02:06:40;100291.94;;;4.24;100.00
54936;BME280;40838;50.676;7.838;2023-02-13T02:09:11;100286.16;;;4.35;100.00
54936;BME280;40838;50.676;7.838;2023-02-13T02:11:46;100286.81;;;4.01;100.00
54936;BME280;40838;50.676;7.838;2023-02-13T02:14:14;100293.72;;;4.23;100.00
54936;BME280;40838;50.676;7.838;2023-02-13T02:16:41;100288.69;;;4.07;100.00
54936;BME280;40838;50.676;7.838;2023-02-13T02:19:14;100290.03;;;4.18;100.00
54936;BME280;40838;50.676;7.838;2023-02-13T02:25:03;100288.44;;;4.60;100.00
54936;BME280;40838;50.676;7.838;2023-02-13T02:28:23;100288.31;;;4.10;100.00
54936;BME280;40838;50.676;7.838;2023-02-13T02:31:15;100287.47;;;4.25;100.00
54936;BME280;40838;50.676;7.838;2023-02-13T02:34:00;100292.34;;;4.92;100.00
54936;BME280;40838;50.676;7.838;2023-02-13T02:36:49;100286.84;;;4.94;100.00
54936;BME280;40838;50.676;7.838;2023-02-13T02:39:27;100285.78;;;4.88;100.00
54936;BME280;40838;50.676;7.838;2023-02-13T02:42:02;100292.13;;;3.86;100.00
54936;BME280;40838;50.676;7.838;2023-02-13T02:44:38;100289.63;;;3.99;100.00
54936;BME280;40838;50.676;7.838;2023-02-13T02:47:12;100289.69;;;4.42;100.00
54936;BME280;40838;50.676;7.838;2023-02-13T02:50:11;100286.03;;;5.21;100.00
54936;BME280;40838;50.676;7.838;2023-02-13T02:52:50;100292.53;;;5.53;100.00
54936;BME280;40838;50.676;7.838;2023-02-13T02:55:30;100300.53;;;4.97;100.00
54936;BME280;40838;50.676;7.838;2023-02-13T02:58:04;100296.91;;;5.05;100.00
54936;BME280;40838;50.676;7.838;2023-02-13T03:00:57;100289.31;;;5.23;100.00
54936;BME280;40838;50.676;7.838;2023-02-13T03:03:43;100297.38;;;4.59;100.00
54936;BME280;40838;50.676;7.838;2023-02-13T03:06:45;100295.75;;;4.64;100.00
54936;BME280;40838;50.676;7.838;2023-02-13T03:09:16;100296.34;;;4.60;100.00
54936;BME280;40838;50.676;7.838;2023-02-13T03:12:04;100301.13;;;4.50;100.00
54936;BME280;40838;50.676;7.838;2023-02-13T03:14:49;100301.84;;;4.86;100.00
54936;BME280;40838;50.676;7.838;2023-02-13T03:17:17;100304.03;;;4.33;100.00
54936;BME280;40838;50.676;7.838;2023-02-13T03:20:12;100298.19;;;4.59;100.00
54936;BME280;40838;50.676;7.838;2023-02-13T03:23:06;100295.59;;;4.66;100.00
54936;BME280;40838;50.676;7.838;2023-02-13T03:25:51;100296.75;;;4.20;100.00
54936;BME280;40838;50.676;7.838;2023-02-13T03:28:25;100307.25;;;3.48;100.00
54936;BME280;40838;50.676;7.838;2023-02-13T03:31:19;100304.47;;;4.01;100.00
54936;BME280;40838;50.676;7.838;2023-02-13T03:33:55;100298.81;;;4.89;100.00
54936;BME280;40838;50.676;7.838;2023-02-13T03:36:32;100304.41;;;4.30;100.00
54936;BME280;40838;50.676;7.838;2023-02-13T03:39:22;100302.78;;;4.79;100.00
54936;BME280;40838;50.676;7.838;2023-02-13T03:41:53;100305.28;;;4.01;100.00
54936;BME280;40838;50.676;7.838;2023-02-13T03:44:25;100304.34;;;4.45;100.00
54936;BME280;40838;50.676;7.838;2023-02-13T03:46:57;100306.38;;;3.92;100.00
54936;BME280;40838;50.676;7.838;2023-02-13T03:49:30;100314.56;;;3.82;100.00
54936;BME280;40838;50.676;7.838;2023-02-13T03:52:29;100323.59;;;3.58;100.00
54936;BME280;40838;50.676;7.838;2023-02-13T03:55:01;100325.22;;;2.77;100.00
54936;BME280;40838;50.676;7.838;2023-02-13T03:57:49;100327.25;;;4.08;100.00
54936;BME280;40838;50.676;7.838;2023-02-13T04:00:38;100327.56;;;3.98;100.00
54936;BME280;40838;50.676;7.838;2023-02-13T04:03:10;100327.88;;;2.92;100.00
54936;BME280;40838;50.676;7.838;2023-02-13T04:05:41;100330.59;;;3.51;100.00
54936;BME280;40838;50.676;7.838;2023-02-13T04:08:09;100320.16;;;3.58;100.00
54936;BME280;40838;50.676;7.838;2023-02-13T04:10:44;100326.03;;;4.26;100.00
54936;BME280;40838;50.676;7.838;2023-02-13T04:13:17;100332.94;;;4.41;100.00
54936;BME280;40838;50.676;7.838;2023-02-13T04:15:49;100333.50;;;3.86;100.00
54936;BME280;40838;50.676;7.838;2023-02-13T04:18:20;100324.00;;;3.91;100.00
54936;BME280;40838;50.676;7.838;2023-02-13T04:20:48;100325.25;;;3.74;100.00
54936;BME280;40838;50.676;7.838;2023-02-13T04:23:15;100328.13;;;3.64;100.00
54936;BME280;40838;50.676;7.838;2023-02-13T04:25:46;100324.50;;;3.80;100.00
54936;BME280;40838;50.676;7.838;2023-02-13T04:28:14;100319.13;;;3.73;100.00
54936;BME280;40838;50.676;7.838;2023-02-13T04:30:42;100320.84;;;3.81;100.00
54936;BME280;40838;50.676;7.838;2023-02-13T04:33:09;100311.38;;;3.87;100.00
54936;BME280;40838;50.676;7.838;2023-02-13T04:35:36;100307.72;;;3.37;100.00
54936;BME280;40838;50.676;7.838;2023-02-13T04:38:03;100315.13;;;3.77;100.00
54936;BME280;40838;50.676;7.838;2023-02-13T04:40:30;100314.22;;;3.70;100.00
54936;BME280;40838;50.676;7.838;2023-02-13T04:42:58;100318.41;;;3.20;100.00
54936;BME280;40838;50.676;7.838;2023-02-13T04:45:25;100311.97;;;3.52;100.00
54936;BME280;40838;50.676;7.838;2023-02-13T04:47:53;100317.84;;;3.10;100.00
54936;BME280;40838;50.676;7.838;2023-02-13T04:50:21;100308.94;;;3.70;100.00
54936;BME280;40838;50.676;7.838;2023-02-13T04:52:49;100311.44;;;3.42;100.00
54936;BME280;40838;50.676;7.838;2023-02-13T04:55:19;100305.97;;;3.44;100.00
54936;BME280;40838;50.676;7.838;2023-02-13T04:57:45;100304.78;;;3.46;100.00
54936;BME280;40838;50.676;7.838;2023-02-13T05:00:14;100303.25;;;3.37;100.00
54936;BME280;40838;50.676;7.838;2023-02-13T05:02:41;100313.09;;;2.91;100.00
54936;BME280;40838;50.676;7.838;2023-02-13T05:05:08;100302.19;;;2.94;100.00
54936;BME280;40838;50.676;7.838;2023-02-13T05:07:35;100292.78;;;3.14;100.00
54936;BME280;40838;50.676;7.838;2023-02-13T05:10:02;100291.53;;;3.10;100.00
54936;BME280;40838;50.676;7.838;2023-02-13T05:12:29;100290.56;;;2.88;100.00
54936;BME280;40838;50.676;7.838;2023-02-13T05:14:56;100296.16;;;3.08;100.00
54936;BME280;40838;50.676;7.838;2023-02-13T05:17:24;100300.53;;;3.16;100.00
54936;BME280;40838;50.676;7.838;2023-02-13T05:19:51;100301.66;;;2.83;100.00
54936;BME280;40838;50.676;7.838;2023-02-13T05:22:18;100301.47;;;3.00;100.00
54936;BME280;40838;50.676;7.838;2023-02-13T05:25:02;100295.50;;;2.68;100.00
54936;BME280;40838;50.676;7.838;2023-02-13T05:27:29;100301.00;;;2.81;100.00
54936;BME280;40838;50.676;7.838;2023-02-13T05:29:56;100308.94;;;2.27;100.00
54936;BME280;40838;50.676;7.838;2023-02-13T05:32:24;100311.38;;;2.60;100.00
54936;BME280;40838;50.676;7.838;2023-02-13T05:34:51;100313.81;;;2.61;100.00
54936;BME280;40838;50.676;7.838;2023-02-13T05:37:18;100300.97;;;2.67;100.00
54936;BME280;40838;50.676;7.838;2023-02-13T05:39:45;100314.72;;;2.23;100.00
54936;BME280;40838;50.676;7.838;2023-02-13T05:42:12;100309.16;;;2.49;100.00
54936;BME280;40838;50.676;7.838;2023-02-13T05:44:39;100314.50;;;2.32;100.00
54936;BME280;40838;50.676;7.838;2023-02-13T05:47:06;100308.31;;;3.24;100.00
54936;BME280;40838;50.676;7.838;2023-02-13T05:49:34;100314.63;;;2.85;100.00
54936;BME280;40838;50.676;7.838;2023-02-13T05:52:01;100309.06;;;3.47;100.00
54936;BME280;40838;50.676;7.838;2023-02-13T05:54:28;100304.34;;;3.13;100.00
54936;BME280;40838;50.676;7.838;2023-02-13T05:56:55;100304.63;;;3.33;100.00
54936;BME280;40838;50.676;7.838;2023-02-13T05:59:21;100305.06;;;3.22;100.00
54936;BME280;40838;50.676;7.838;2023-02-13T06:01:48;100305.81;;;2.78;100.00
54936;BME280;40838;50.676;7.838;2023-02-13T06:04:18;100306.69;;;3.08;100.00
54936;BME280;40838;50.676;7.838;2023-02-13T06:06:46;100314.66;;;3.00;100.00
54936;BME280;40838;50.676;7.838;2023-02-13T06:09:13;100313.25;;;2.89;100.00
54936;BME280;40838;50.676;7.838;2023-02-13T06:11:39;100315.22;;;2.72;100.00
54936;BME280;40838;50.676;7.838;2023-02-13T06:14:06;100309.19;;;2.87;100.00
54936;BME280;40838;50.676;7.838;2023-02-13T06:16:33;100315.94;;;2.66;100.00
54936;BME280;40838;50.676;7.838;2023-02-13T06:19:00;100306.84;;;2.69;100.00
54936;BME280;40838;50.676;7.838;2023-02-13T06:21:27;100302.94;;;2.65;100.00
54936;BME280;40838;50.676;7.838;2023-02-13T06:23:55;100309.69;;;2.67;100.00
54936;BME280;40838;50.676;7.838;2023-02-13T06:26:22;100296.81;;;2.72;100.00
54936;BME280;40838;50.676;7.838;2023-02-13T06:28:49;100309.50;;;2.46;100.00
54936;BME280;40838;50.676;7.838;2023-02-13T06:31:16;100309.78;;;2.28;100.00
54936;BME280;40838;50.676;7.838;2023-02-13T06:33:43;100307.53;;;2.16;100.00
54936;BME280;40838;50.676;7.838;2023-02-13T06:36:10;100304.38;;;2.21;100.00
54936;BME280;40838;50.676;7.838;2023-02-13T06:38:36;100306.16;;;2.29;100.00
54936;BME280;40838;50.676;7.838;2023-02-13T06:41:05;100302.94;;;2.42;100.00
54936;BME280;40838;50.676;7.838;2023-02-13T06:43:32;100304.97;;;1.21;100.00
54936;BME280;40838;50.676;7.838;2023-02-13T06:45:59;100312.72;;;2.02;100.00
54936;BME280;40838;50.676;7.838;2023-02-13T06:48:25;100314.00;;;2.06;100.00
54936;BME280;40838;50.676;7.838;2023-02-13T06:50:52;100313.91;;;2.22;100.00
54936;BME280;40838;50.676;7.838;2023-02-13T06:53:19;100319.09;;;2.38;100.00
54936;BME280;40838;50.676;7.838;2023-02-13T06:55:50;100325.34;;;1.67;100.00
54936;BME280;40838;50.676;7.838;2023-02-13T06:58:19;100316.47;;;2.38;100.00
54936;BME280;40838;50.676;7.838;2023-02-13T07:00:47;100320.97;;;2.22;100.00
54936;BME280;40838;50.676;7.838;2023-02-13T07:03:14;100316.50;;;1.99;100.00
54936;BME280;40838;50.676;7.838;2023-02-13T07:05:41;100315.59;;;2.38;100.00
54936;BME280;40838;50.676;7.838;2023-02-13T07:08:08;100326.59;;;1.87;100.00
54936;BME280;40838;50.676;7.838;2023-02-13T07:10:36;100326.69;;;2.02;100.00
54936;BME280;40838;50.676;7.838;2023-02-13T07:13:03;100320.53;;;2.87;100.00
54936;BME280;40838;50.676;7.838;2023-02-13T07:15:33;100316.28;;;2.63;100.00
54936;BME280;40838;50.676;7.838;2023-02-13T07:18:00;100312.25;;;3.58;100.00
54936;BME280;40838;50.676;7.838;2023-02-13T07:20:27;100316.31;;;4.11;100.00
54936;BME280;40838;50.676;7.838;2023-02-13T07:22:57;100312.34;;;6.25;99.26
54936;BME280;40838;50.676;7.838;2023-02-13T07:25:24;100306.78;;;6.00;97.38
54936;BME280;40838;50.676;7.838;2023-02-13T07:27:51;100302.00;;;6.70;94.89
54936;BME280;40838;50.676;7.838;2023-02-13T07:30:19;100298.13;;;7.00;88.98
54936;BME280;40838;50.676;7.838;2023-02-13T07:32:47;100296.09;;;6.95;90.96
54936;BME280;40838;50.676;7.838;2023-02-13T07:35:14;100292.22;;;7.82;86.65
54936;BME280;40838;50.676;7.838;2023-02-13T07:37:41;100295.25;;;7.28;89.40
54936;BME280;40838;50.676;7.838;2023-02-13T07:40:08;100294.84;;;7.37;90.02
54936;BME280;40838;50.676;7.838;2023-02-13T07:42:35;100301.56;;;7.20;90.27
54936;BME280;40838;50.676;7.838;2023-02-13T07:45:02;100308.50;;;5.39;97.60
54936;BME280;40838;50.676;7.838;2023-02-13T07:47:32;100302.63;;;6.53;93.71
54936;BME280;40838;50.676;7.838;2023-02-13T07:50:00;100310.09;;;5.33;99.49
54936;BME280;40838;50.676;7.838;2023-02-13T07:52:27;100305.75;;;6.01;97.49
54936;BME280;40838;50.676;7.838;2023-02-13T07:54:54;100304.56;;;6.11;96.39
54936;BME280;40838;50.676;7.838;2023-02-13T07:57:21;100306.03;;;6.20;95.87
54936;BME280;40838;50.676;7.838;2023-02-13T07:59:48;100295.44;;;7.13;90.86
54936;BME280;40838;50.676;7.838;2023-02-13T08:02:15;100302.50;;;5.99;94.93
54936;BME280;40838;50.676;7.838;2023-02-13T08:04:42;100295.56;;;5.92;94.55
54936;BME280;40838;50.676;7.838;2023-02-13T08:07:12;100296.38;;;7.65;89.00
54936;BME280;40838;50.676;7.838;2023-02-13T08:09:39;100307.50;;;6.82;90.91
54936;BME280;40838;50.676;7.838;2023-02-13T08:12:23;100313.41;;;7.31;89.73
54936;BME280;40838;50.676;7.838;2023-02-13T08:14:50;100308.50;;;7.34;87.63
54936;BME280;40838;50.676;7.838;2023-02-13T08:17:16;100301.66;;;8.48;83.25
54936;BME280;40838;50.676;7.838;2023-02-13T08:19:43;100310.09;;;8.07;84.14
54936;BME280;40838;50.676;7.838;2023-02-13T08:22:11;100305.00;;;7.99;86.11
54936;BME280;40838;50.676;7.838;2023-02-13T08:24:38;100302.59;;;6.92;91.41
54936;BME280;40838;50.676;7.838;2023-02-13T08:27:05;100310.34;;;7.21;89.64
54936;BME280;40838;50.676;7.838;2023-02-13T08:29:32;100309.72;;;7.12;91.77
54936;BME280;40838;50.676;7.838;2023-02-13T08:31:59;100316.25;;;6.63;91.73
54936;BME280;40838;50.676;7.838;2023-02-13T08:34:26;100310.94;;;7.16;90.96
54936;BME280;40838;50.676;7.838;2023-02-13T08:36:53;100308.94;;;7.11;91.84
54936;BME280;40838;50.676;7.838;2023-02-13T08:39:21;100306.88;;;7.40;91.06
54936;BME280;40838;50.676;7.838;2023-02-13T08:41:48;100313.00;;;6.81;91.57
54936;BME280;40838;50.676;7.838;2023-02-13T08:44:14;100321.91;;;6.27;93.13
54936;BME280;40838;50.676;7.838;2023-02-13T08:46:41;100310.75;;;7.31;89.73
54936;BME280;40838;50.676;7.838;2023-02-13T08:49:08;100312.38;;;7.38;89.98
54936;BME280;40838;50.676;7.838;2023-02-13T08:51:35;100317.09;;;6.97;91.04
54936;BME280;40838;50.676;7.838;2023-02-13T08:54:02;100320.31;;;7.38;88.90
54936;BME280;40838;50.676;7.838;2023-02-13T08:56:30;100318.38;;;7.79;88.36
54936;BME280;40838;50.676;7.838;2023-02-13T08:58:57;100315.56;;;7.67;89.42
54936;BME280;40838;50.676;7.838;2023-02-13T09:01:24;100322.94;;;7.58;88.94
54936;BME280;40838;50.676;7.838;2023-02-13T09:03:51;100317.84;;;7.50;90.66
54936;BME280;40838;50.676;7.838;2023-02-13T09:06:17;100325.00;;;7.23;88.76
54936;BME280;40838;50.676;7.838;2023-02-13T09:08:44;100314.75;;;7.60;87.88
54936;BME280;40838;50.676;7.838;2023-02-13T09:11:11;100326.78;;;8.14;85.45
54936;BME280;40838;50.676;7.838;2023-02-13T09:13:39;100318.03;;;9.20;80.75
54936;BME280;40838;50.676;7.838;2023-02-13T09:16:07;100320.94;;;7.99;85.98
54936;BME280;40838;50.676;7.838;2023-02-13T09:18:34;100328.09;;;8.30;85.34
54936;BME280;40838;50.676;7.838;2023-02-13T09:21:03;100319.84;;;8.51;83.64
54936;BME280;40838;50.676;7.838;2023-02-13T09:23:31;100321.28;;;8.79;82.62
54936;BME280;40838;50.676;7.838;2023-02-13T09:25:58;100324.06;;;8.27;84.80
54936;BME280;40838;50.676;7.838;2023-02-13T09:28:26;100332.59;;;8.36;84.77
54936;BME280;40838;50.676;7.838;2023-02-13T09:30:54;100331.63;;;9.12;81.35
54936;BME280;40838;50.676;7.838;2023-02-13T09:33:21;100328.19;;;9.49;78.83
54936;BME280;40838;50.676;7.838;2023-02-13T09:35:48;100325.75;;;10.02;77.08
54936;BME280;40838;50.676;7.838;2023-02-13T09:38:15;100326.16;;;9.69;77.77
54936;BME280;40838;50.676;7.838;2023-02-13T09:40:45;100321.06;;;9.86;76.75
54936;BME280;40838;50.676;7.838;2023-02-13T09:43:15;100339.19;;;9.52;76.68
54936;BME280;40838;50.676;7.838;2023-02-13T09:45:45;100326.94;;;10.90;74.16
54936;BME280;40838;50.676;7.838;2023-02-13T09:48:20;100322.00;;;11.69;66.61
54936;BME280;40838;50.676;7.838;2023-02-13T09:50:50;100321.72;;;11.31;67.29
54936;BME280;40838;50.676;7.838;2023-02-13T09:53:20;100330.94;;;10.69;72.64
54936;BME280;40838;50.676;7.838;2023-02-13T09:55:57;100320.34;;;11.28;67.77
54936;BME280;40838;50.676;7.838;2023-02-13T09:58:38;100321.03;;;11.35;68.04
54936;BME280;40838;50.676;7.838;2023-02-13T10:01:17;100332.63;;;10.52;74.56
54936;BME280;40838;50.676;7.838;2023-02-13T10:03:54;100323.38;;;11.08;69.54
54936;BME280;40838;50.676;7.838;2023-02-13T10:06:30;100327.47;;;10.27;73.09
54936;BME280;40838;50.676;7.838;2023-02-13T10:09:07;100333.31;;;9.07;80.68
54936;BME280;40838;50.676;7.838;2023-02-13T10:11:57;100330.31;;;10.86;72.19
54936;BME280;40838;50.676;7.838;2023-02-13T10:14:31;100323.94;;;10.98;73.23
54936;BME280;40838;50.676;7.838;2023-02-13T10:17:05;100333.13;;;8.77;79.49
54936;BME280;40838;50.676;7.838;2023-02-13T10:19:39;100329.81;;;10.35;74.93
54936;BME280;40838;50.676;7.838;2023-02-13T10:22:11;100330.25;;;9.28;78.26
54936;BME280;40838;50.676;7.838;2023-02-13T10:24:44;100322.53;;;10.42;73.06
54936;BME280;40838;50.676;7.838;2023-02-13T10:27:18;100311.41;;;12.44;64.29
54936;BME280;40838;50.676;7.838;2023-02-13T10:29:50;100322.09;;;10.45;70.08
54936;BME280;40838;50.676;7.838;2023-02-13T10:32:36;100318.47;;;11.05;70.53
54936;BME280;40838;50.676;7.838;2023-02-13T10:35:16;100316.97;;;11.21;67.63
54936;BME280;40838;50.676;7.838;2023-02-13T10:37:44;100320.06;;;11.65;60.69
54936;BME280;40838;50.676;7.838;2023-02-13T10:40:16;100320.97;;;11.71;61.06
54936;BME280;40838;50.676;7.838;2023-02-13T10:42:44;100315.34;;;13.42;53.36
54936;BME280;40838;50.676;7.838;2023-02-13T10:45:27;100325.47;;;9.55;78.66
54936;BME280;40838;50.676;7.838;2023-02-13T10:48:16;100324.34;;;11.66;63.72
54936;BME280;40838;50.676;7.838;2023-02-13T10:50:56;100316.34;;;12.06;60.17
54936;BME280;40838;50.676;7.838;2023-02-13T10:53:32;100304.56;;;12.82;55.25
54936;BME280;40838;50.676;7.838;2023-02-13T10:56:15;100297.75;;;11.71;64.55
54936;BME280;40838;50.676;7.838;2023-02-13T10:59:07;100312.13;;;11.94;60.49
54936;BME280;40838;50.676;7.838;2023-02-13T11:01:45;100300.69;;;12.27;59.98
54936;BME280;40838;50.676;7.838;2023-02-13T11:04:16;100295.69;;;11.61;65.29
54936;BME280;40838;50.676;7.838;2023-02-13T11:06:49;100294.91;;;11.37;65.04
54936;BME280;40838;50.676;7.838;2023-02-13T11:09:18;100298.56;;;12.91;57.43
54936;BME280;40838;50.676;7.838;2023-02-13T11:11:45;100302.94;;;10.78;67.05
54936;BME280;40838;50.676;7.838;2023-02-13T11:14:15;100294.44;;;12.21;60.92
54936;BME280;40838;50.676;7.838;2023-02-13T11:16:48;100289.41;;;12.08;61.08
54936;BME280;40838;50.676;7.838;2023-02-13T11:19:18;100290.44;;;12.52;59.60
54936;BME280;40838;50.676;7.838;2023-02-13T11:21:52;100284.72;;;11.86;66.35
54936;BME280;40838;50.676;7.838;2023-02-13T11:24:21;100288.59;;;11.67;62.38
54936;BME280;40838;50.676;7.838;2023-02-13T11:26:51;100288.78;;;11.77;63.19
54936;BME280;40838;50.676;7.838;2023-02-13T11:29:22;100278.09;;;11.89;64.17
54936;BME280;40838;50.676;7.838;2023-02-13T11:34:41;100273.28;;;12.99;56.77
54936;BME280;40838;50.676;7.838;2023-02-13T11:37:26;100275.34;;;12.75;58.04
54936;BME280;40838;50.676;7.838;2023-02-13T11:39:55;100271.00;;;12.40;59.11
54936;BME280;40838;50.676;7.838;2023-02-13T11:42:28;100267.88;;;12.15;60.90
54936;BME280;40838;50.676;7.838;2023-02-13T11:44:59;100263.00;;;12.74;57.33
54936;BME280;40838;50.676;7.838;2023-02-13T11:47:33;100262.19;;;11.94;65.56
54936;BME280;40838;50.676;7.838;2023-02-13T11:50:00;100266.06;;;12.83;57.04
54936;BME280;40838;50.676;7.838;2023-02-13T11:52:31;100253.91;;;11.15;66.79
54936;BME280;40838;50.676;7.838;2023-02-13T11:55:01;100249.34;;;12.25;61.41
54936;BME280;40838;50.676;7.838;2023-02-13T11:57:31;100255.69;;;11.50;63.67
54936;BME280;40838;50.676;7.838;2023-02-13T11:59:59;100255.44;;;11.51;67.33
54936;BME280;40838;50.676;7.838;2023-02-13T12:02:44;100256.66;;;12.29;55.75
54936;BME280;40838;50.676;7.838;2023-02-13T12:05:17;100247.41;;;12.54;57.23
54936;BME280;40838;50.676;7.838;2023-02-13T12:07:46;100245.72;;;11.85;60.81
54936;BME280;40838;50.676;7.838;2023-02-13T12:10:22;100248.59;;;11.55;63.63
54936;BME280;40838;50.676;7.838;2023-02-13T12:12:53;100242.75;;;10.71;69.68
54936;BME280;40838;50.676;7.838;2023-02-13T12:15:23;100242.66;;;11.01;63.84
54936;BME280;40838;50.676;7.838;2023-02-13T12:18:05;100247.75;;;10.14;69.21
54936;BME280;40838;50.676;7.838;2023-02-13T12:20:44;100234.44;;;9.53;70.52
54936;BME280;40838;50.676;7.838;2023-02-13T12:23:26;100236.66;;;9.56;71.67
54936;BME280;40838;50.676;7.838;2023-02-13T12:26:07;100227.09;;;10.39;67.41
54936;BME280;40838;50.676;7.838;2023-02-13T12:28:47;100215.84;;;11.19;62.07
54936;BME280;40838;50.676;7.838;2023-02-13T12:31:37;100225.50;;;10.08;64.07
54936;BME280;40838;50.676;7.838;2023-02-13T12:34:29;100222.75;;;9.54;71.49
54936;BME280;40838;50.676;7.838;2023-02-13T12:37:12;100211.72;;;11.00;61.40
54936;BME280;40838;50.676;7.838;2023-02-13T12:39:51;100217.84;;;11.00;58.93
54936;BME280;40838;50.676;7.838;2023-02-13T12:42:26;100209.38;;;10.45;64.65
54936;BME280;40838;50.676;7.838;2023-02-13T12:45:10;100210.06;;;10.64;63.60
54936;BME280;40838;50.676;7.838;2023-02-13T12:47:57;100208.94;;;9.94;66.63
54936;BME280;40838;50.676;7.838;2023-02-13T12:50:34;100207.69;;;9.48;66.81
54936;BME280;40838;50.676;7.838;2023-02-13T12:53:15;100204.31;;;10.78;64.30
54936;BME280;40838;50.676;7.838;2023-02-13T12:56:00;100202.88;;;10.41;65.04
54936;BME280;40838;50.676;7.838;2023-02-13T12:58:53;100193.66;;;10.01;68.02
54936;BME280;40838;50.676;7.838;2023-02-13T13:01:53;100196.06;;;10.45;64.25
54936;BME280;40838;50.676;7.838;2023-02-13T13:04:32;100192.03;;;10.77;60.41
54936;BME280;40838;50.676;7.838;2023-02-13T13:07:26;100193.53;;;9.96;62.43
54936;BME280;40838;50.676;7.838;2023-02-13T13:10:13;100194.75;;;10.24;61.86
54936;BME280;40838;50.676;7.838;2023-02-13T13:12:51;100195.69;;;9.87;62.88
54936;BME280;40838;50.676;7.838;2023-02-13T13:15:28;100190.63;;;9.37;68.09
54936;BME280;40838;50.676;7.838;2023-02-13T13:18:15;100196.47;;;9.28;68.59
54936;BME280;40838;50.676;7.838;2023-02-13T13:21:08;100188.28;;;10.67;60.54
54936;BME280;40838;50.676;7.838;2023-02-13T13:23:43;100184.00;;;10.89;59.60